Time;durP1;ratioP1;P1;durP2;ratioP2;P2;SDS_P1;SDS_P2;PMS_P1;PMS_P2;Temp;Humidity;BMP_temperature;BMP_pressure;BME280_temperature;BME280_humidity;BME280_pressure;Samples;Min_cycle;Max_cycle;Signal;HPM_P1;HPM_P2
2023/07/09 00:01:41;;;;;;;3.05;2.70;;;;;;;15.52;96.50;101968.47;4977003;28;20186;-48
2023/07/09 00:04:10;;;;;;;4.00;2.42;;;;;;;15.63;96.58;101969.81;4984662;28;20271;-49
2023/07/09 00:06:36;;;;;;;3.08;2.53;;;;;;;15.64;96.84;101976.09;4982021;28;20208;-50
2023/07/09 00:09:01;;;;;;;4.93;2.63;;;;;;;15.57;97.14;101980.00;4977934;28;20181;-48
2023/07/09 00:11:27;;;;;;;4.88;2.80;;;;;;;15.22;97.23;101976.88;4984432;28;20577;-47
2023/07/09 00:13:52;;;;;;;4.60;2.92;;;;;;;14.80;98.77;101975.78;4984020;28;20224;-47
2023/07/09 00:16:22;;;;;;;4.93;3.00;;;;;;;14.43;100.00;101987.88;4979961;28;20177;-47
2023/07/09 00:18:48;;;;;;;3.00;2.45;;;;;;;14.72;100.00;101977.88;4976401;28;20674;-48
2023/07/09 00:21:18;;;;;;;3.80;3.03;;;;;;;14.81;100.00;101985.63;4979872;28;20173;-47
2023/07/09 00:23:43;;;;;;;4.18;3.10;;;;;;;14.70;100.00;101982.44;4980137;28;20170;-48
2023/07/09 00:26:13;;;;;;;3.13;2.80;;;;;;;14.89;100.00;101987.13;4980084;28;20256;-47
2023/07/09 00:28:43;;;;;;;4.55;3.10;;;;;;;15.06;100.00;101992.78;4978333;28;20264;-48
2023/07/09 00:31:14;;;;;;;3.42;2.47;;;;;;;15.19;100.00;101991.34;4992921;28;20236;-49
2023/07/09 00:33:40;;;;;;;3.30;3.05;;;;;;;15.24;100.00;101993.91;4978523;28;20178;-49
2023/07/09 00:36:18;;;;;;;3.28;2.85;;;;;;;15.10;100.00;101996.25;4978716;28;20510;-50
2023/07/09 00:38:47;;;;;;;2.95;2.70;;;;;;;15.01;100.00;102001.06;4980508;28;20656;-49
2023/07/09 00:41:18;;;;;;;4.07;2.90;;;;;;;15.01;100.00;102002.88;4979304;28;20718;-48
2023/07/09 00:43:46;;;;;;;3.42;2.88;;;;;;;15.07;100.00;101999.09;4977341;28;20177;-48
2023/07/09 00:46:25;;;;;;;3.15;2.80;;;;;;;15.08;100.00;102004.41;4995630;28;20259;-47
2023/07/09 00:48:58;;;;;;;2.95;2.67;;;;;;;15.09;100.00;102006.16;4995749;28;20191;-47
2023/07/09 00:51:25;;;;;;;3.75;2.78;;;;;;;14.97;100.00;101996.72;4977554;28;20744;-48
2023/07/09 00:54:00;;;;;;;3.67;2.70;;;;;;;14.93;100.00;102008.56;4992806;28;20771;-51
2023/07/09 00:56:38;;;;;;;2.83;2.60;;;;;;;14.93;100.00;101996.88;4982180;28;20271;-48
2023/07/09 00:59:07;;;;;;;4.07;3.03;;;;;;;14.62;100.00;102000.72;4978992;28;20169;-47
2023/07/09 01:01:34;;;;;;;2.75;2.55;;;;;;;14.26;100.00;102001.06;4981642;28;20250;-47
2023/07/09 01:04:03;;;;;;;2.95;2.70;;;;;;;14.28;100.00;101991.13;4977276;28;20279;-47
2023/07/09 01:06:44;;;;;;;4.10;2.90;;;;;;;14.41;100.00;101992.44;4977916;28;20186;-47
2023/07/09 01:09:10;;;;;;;3.90;2.78;;;;;;;14.50;100.00;101991.25;4980629;28;20439;-47
2023/07/09 01:11:38;;;;;;;4.53;3.00;;;;;;;14.38;100.00;101987.16;4976448;28;20213;-47
2023/07/09 01:14:06;;;;;;;5.35;3.30;;;;;;;14.21;100.00;101984.16;4990030;28;20189;-46
2023/07/09 01:16:38;;;;;;;5.20;3.03;;;;;;;14.11;100.00;101996.22;4978053;28;20573;-48
2023/07/09 01:19:06;;;;;;;4.20;3.15;;;;;;;14.19;100.00;101996.81;4999523;28;20185;-48
2023/07/09 01:21:59;;;;;;;4.43;3.40;;;;;;;14.28;100.00;101998.31;4991785;28;20220;-50
2023/07/09 01:25:01;;;;;;;5.45;3.45;;;;;;;14.55;100.00;101985.72;4995330;28;20236;-47
2023/07/09 01:27:39;;;;;;;3.08;2.70;;;;;;;14.51;100.00;101982.19;4987118;28;20196;-47
2023/07/09 01:30:31;;;;;;;3.85;3.28;;;;;;;14.34;100.00;101980.13;4996784;28;20675;-48
2023/07/09 01:32:58;;;;;;;3.25;2.95;;;;;;;14.45;100.00;101982.41;4991386;28;20196;-48
2023/07/09 01:35:25;;;;;;;5.82;3.33;;;;;;;14.43;100.00;101978.91;4999137;28;20208;-50
2023/07/09 01:37:53;;;;;;;3.65;3.05;;;;;;;14.22;100.00;101985.94;4994905;28;20688;-48
2023/07/09 01:40:21;;;;;;;4.70;3.20;;;;;;;14.32;100.00;101983.78;4986696;28;20287;-52
2023/07/09 01:42:46;;;;;;;3.72;2.85;;;;;;;14.42;100.00;101986.09;4979243;28;20181;-49
2023/07/09 01:45:12;;;;;;;3.13;2.83;;;;;;;14.17;100.00;101993.31;4998168;28;20249;-48
2023/07/09 01:47:39;;;;;;;4.03;2.95;;;;;;;13.99;100.00;101994.81;4987092;28;20630;-47
2023/07/09 01:50:06;;;;;;;3.85;3.35;;;;;;;13.76;100.00;101991.06;4981141;28;20370;-48
2023/07/09 01:52:33;;;;;;;4.78;2.70;;;;;;;13.76;100.00;101995.59;4981632;28;20682;-48
2023/07/09 01:55:00;;;;;;;5.45;3.00;;;;;;;13.70;100.00;101993.09;4982626;28;20197;-49
2023/07/09 01:57:34;;;;;;;3.13;2.80;;;;;;;13.79;100.00;101993.66;4985392;28;20196;-47
2023/07/09 02:00:11;;;;;;;2.83;2.63;;;;;;;13.93;100.00;102001.28;4981915;28;20695;-46
2023/07/09 02:02:44;;;;;;;4.45;3.10;;;;;;;14.03;100.00;101993.78;4980741;28;20193;-47
2023/07/09 02:05:12;;;;;;;4.95;2.90;;;;;;;14.08;100.00;101982.81;4982784;28;20197;-47
2023/07/09 02:07:37;;;;;;;4.40;3.20;;;;;;;14.04;100.00;101986.56;4979623;28;20205;-47
2023/07/09 02:10:03;;;;;;;3.85;2.92;;;;;;;14.11;100.00;101986.31;4985715;28;20703;-48
2023/07/09 02:12:31;;;;;;;4.85;2.80;;;;;;;14.16;100.00;101975.38;4986391;28;20184;-47
2023/07/09 02:14:56;;;;;;;3.47;3.08;;;;;;;14.01;100.00;101974.97;4997037;28;20205;-47
2023/07/09 02:17:23;;;;;;;3.40;2.97;;;;;;;14.01;100.00;101983.06;4982309;28;20208;-50
2023/07/09 02:19:50;;;;;;;2.88;2.47;;;;;;;14.07;100.00;101976.56;4979583;28;20166;-49
2023/07/09 02:22:16;;;;;;;3.47;2.65;;;;;;;14.00;100.00;101975.91;4980645;28;20182;-47
2023/07/09 02:24:42;;;;;;;2.95;2.75;;;;;;;14.08;100.00;101972.94;4979499;28;20198;-47
2023/07/09 02:27:10;;;;;;;2.97;2.63;;;;;;;14.10;100.00;101973.78;4983010;28;20238;-48
2023/07/09 02:29:36;;;;;;;5.07;2.90;;;;;;;14.10;100.00;101971.09;4976616;28;20177;-47
2023/07/09 02:32:02;;;;;;;4.28;3.30;;;;;;;13.81;100.00;101969.38;4999972;28;20193;-49
2023/07/09 02:34:30;;;;;;;4.32;2.95;;;;;;;13.71;100.00;101971.50;4983138;28;20204;-46
2023/07/09 02:36:58;;;;;;;2.78;2.58;;;;;;;13.73;100.00;101966.94;4983561;28;20174;-47
2023/07/09 02:39:25;;;;;;;5.72;2.80;;;;;;;13.71;100.00;101967.91;4982585;28;20731;-47
2023/07/09 02:41:50;;;;;;;3.92;3.03;;;;;;;13.65;100.00;101973.50;4982020;28;20260;-48
2023/07/09 02:44:17;;;;;;;3.00;2.70;;;;;;;13.77;100.00;101984.78;4979534;28;20293;-47
2023/07/09 02:46:43;;;;;;;4.25;3.00;;;;;;;13.71;100.00;101978.69;4981393;28;20731;-48
2023/07/09 02:49:11;;;;;;;3.42;2.97;;;;;;;13.45;100.00;101982.25;4982955;28;20207;-47
2023/07/09 02:51:36;;;;;;;6.18;2.97;;;;;;;13.33;100.00;101983.50;4984931;28;20558;-48
2023/07/09 02:54:03;;;;;;;4.65;3.20;;;;;;;13.41;100.00;101989.53;4977279;28;20193;-48
2023/07/09 02:56:30;;;;;;;4.10;3.10;;;;;;;13.46;100.00;101994.75;4996684;28;20182;-47
2023/07/09 02:58:55;;;;;;;6.28;3.10;;;;;;;13.29;100.00;101990.75;4986966;28;20177;-48
2023/07/09 03:01:24;;;;;;;5.63;2.95;;;;;;;13.30;100.00;101992.53;4998477;28;20165;-50
2023/07/09 03:03:59;;;;;;;2.97;2.78;;;;;;;13.48;100.00;101984.81;4980542;28;20186;-49
2023/07/09 03:06:26;;;;;;;4.00;2.72;;;;;;;13.58;100.00;102003.34;4994546;28;20498;-47
2023/07/09 03:08:52;;;;;;;3.03;2.65;;;;;;;13.65;100.00;102001.31;4981840;28;20208;-48
2023/07/09 03:11:19;;;;;;;3.30;3.00;;;;;;;13.66;100.00;101997.69;4994621;28;20192;-47
2023/07/09 03:13:45;;;;;;;3.92;3.08;;;;;;;13.66;100.00;101991.41;4981839;28;20180;-50
2023/07/09 03:16:11;;;;;;;7.07;3.00;;;;;;;13.57;100.00;102004.25;4977524;28;20545;-50
2023/07/09 03:18:36;;;;;;;3.45;2.70;;;;;;;13.48;100.00;102015.31;4983565;28;20192;-48
2023/07/09 03:21:02;;;;;;;3.50;2.92;;;;;;;13.18;100.00;102018.00;4978185;28;20178;-49
2023/07/09 03:23:28;;;;;;;2.97;2.78;;;;;;;13.31;100.00;102014.94;4975569;28;20181;-48
2023/07/09 03:25:54;;;;;;;2.83;2.63;;;;;;;13.49;100.00;102008.09;4998180;28;20193;-49
2023/07/09 03:28:20;;;;;;;3.17;2.88;;;;;;;13.59;100.00;102009.59;4982761;28;20266;-50
2023/07/09 03:30:48;;;;;;;3.75;2.60;;;;;;;13.57;100.00;102022.22;4980317;28;20170;-52
2023/07/09 03:33:15;;;;;;;3.50;3.15;;;;;;;13.50;100.00;102017.97;4982877;28;20260;-49
2023/07/09 03:35:41;;;;;;;3.83;3.15;;;;;;;13.46;100.00;102016.28;4980639;28;20300;-47
2023/07/09 03:38:08;;;;;;;3.00;2.78;;;;;;;13.54;100.00;102007.03;4979403;28;20197;-48
2023/07/09 03:40:34;;;;;;;3.53;2.85;;;;;;;13.48;100.00;102007.22;4980762;28;20730;-48
2023/07/09 03:43:00;;;;;;;3.22;2.92;;;;;;;13.60;100.00;102005.97;4982615;28;20177;-48
2023/07/09 03:45:26;;;;;;;3.88;2.83;;;;;;;13.71;100.00;101990.34;4980726;28;20197;-47
2023/07/09 03:47:51;;;;;;;3.22;2.50;;;;;;;13.67;100.00;101994.06;4980938;28;20202;-47
2023/07/09 03:50:17;;;;;;;2.85;2.50;;;;;;;13.60;100.00;102008.69;4979195;28;20579;-50
2023/07/09 03:52:43;;;;;;;2.67;2.47;;;;;;;13.69;100.00;102019.16;4978249;28;20170;-49
2023/07/09 03:55:09;;;;;;;2.92;2.63;;;;;;;13.79;100.00;102007.13;4979086;28;20213;-47
2023/07/09 03:57:35;;;;;;;3.10;2.78;;;;;;;13.78;100.00;102002.69;4982405;28;20177;-48
2023/07/09 04:00:03;;;;;;;3.65;2.92;;;;;;;13.71;100.00;102003.81;4979660;28;20218;-49
2023/07/09 04:02:43;;;;;;;4.65;3.03;;;;;;;13.83;100.00;101993.56;4979876;28;20169;-48
2023/07/09 04:05:08;;;;;;;3.05;2.67;;;;;;;13.92;100.00;101999.50;4983144;28;20205;-49
2023/07/09 04:07:34;;;;;;;3.47;3.15;;;;;;;14.00;100.00;102002.84;4976781;28;20701;-48
2023/07/09 04:10:00;;;;;;;6.40;2.55;;;;;;;14.18;100.00;102005.84;4981362;28;20176;-48
2023/07/09 04:12:26;;;;;;;3.45;2.70;;;;;;;14.19;100.00;102007.59;4980805;28;20186;-50
2023/07/09 04:14:51;;;;;;;4.20;2.90;;;;;;;14.00;100.00;101992.06;4979804;28;20193;-47
2023/07/09 04:17:17;;;;;;;3.85;2.97;;;;;;;13.88;100.00;102000.53;4981111;28;20170;-48
2023/07/09 04:19:42;;;;;;;6.38;2.78;;;;;;;13.97;100.00;101994.88;4978809;28;20186;-47
2023/07/09 04:22:10;;;;;;;3.83;3.00;;;;;;;13.89;100.00;101999.63;4981394;28;20225;-49
2023/07/09 04:24:36;;;;;;;4.85;2.80;;;;;;;13.96;100.00;102003.00;4979622;28;20193;-48
2023/07/09 04:27:02;;;;;;;4.18;2.90;;;;;;;14.11;100.00;102007.00;4982439;28;20672;-49
2023/07/09 04:29:35;;;;;;;3.33;2.80;;;;;;;14.29;100.00;102009.03;4982348;28;20184;-50
2023/07/09 04:32:05;;;;;;;3.33;2.95;;;;;;;14.37;100.00;102006.97;4980603;28;20556;-47
2023/07/09 04:34:31;;;;;;;2.85;2.65;;;;;;;14.55;100.00;102000.06;4984177;28;20687;-49
2023/07/09 04:36:57;;;;;;;4.60;2.78;;;;;;;14.68;100.00;102011.28;4979823;28;20166;-50
2023/07/09 04:39:22;;;;;;;2.88;2.67;;;;;;;14.83;100.00;101994.53;4982306;28;20732;-50
2023/07/09 04:41:48;;;;;;;3.20;2.60;;;;;;;15.02;100.00;101997.44;4979067;28;20209;-49
2023/07/09 04:44:14;;;;;;;3.47;2.92;;;;;;;15.12;100.00;101986.28;4980358;28;20284;-49
2023/07/09 04:46:39;;;;;;;3.47;2.60;;;;;;;15.23;100.00;101997.53;4979168;28;20664;-49
2023/07/09 04:49:05;;;;;;;3.35;3.05;;;;;;;15.36;100.00;101993.41;4978169;28;20178;-48
2023/07/09 04:51:30;;;;;;;3.78;2.78;;;;;;;15.50;100.00;101990.13;4980166;28;20269;-49
2023/07/09 04:53:56;;;;;;;2.95;2.42;;;;;;;15.65;100.00;101994.94;4978567;28;20194;-51
2023/07/09 04:56:22;;;;;;;3.55;2.70;;;;;;;15.78;100.00;101992.63;4981532;28;20257;-49
2023/07/09 04:58:48;;;;;;;5.65;2.80;;;;;;;15.91;100.00;101987.59;4978060;28;20272;-50
2023/07/09 05:01:14;;;;;;;3.17;2.50;;;;;;;16.02;100.00;101987.16;4980285;28;20264;-50
2023/07/09 05:03:39;;;;;;;3.13;2.83;;;;;;;16.18;100.00;101985.56;4979844;28;20248;-48
2023/07/09 05:06:05;;;;;;;3.80;2.83;;;;;;;16.29;100.00;101987.81;4983516;28;20206;-49
2023/07/09 05:08:30;;;;;;;6.95;3.03;;;;;;;16.47;100.00;101994.22;4979257;28;20275;-49
2023/07/09 05:10:57;;;;;;;2.70;2.50;;;;;;;16.53;99.46;101977.72;4980057;28;20181;-49
2023/07/09 05:13:24;;;;;;;3.20;2.60;;;;;;;16.73;97.68;101982.22;4978853;28;20276;-49
2023/07/09 05:15:50;;;;;;;4.80;2.40;;;;;;;16.80;95.68;101972.03;4977101;28;20288;-51
2023/07/09 05:18:16;;;;;;;4.18;2.55;;;;;;;16.90;94.31;101976.03;4990650;28;20180;-47
2023/07/09 05:20:42;;;;;;;4.57;2.85;;;;;;;16.96;93.05;101967.66;4984343;28;20208;-48
2023/07/09 05:23:10;;;;;;;5.10;2.90;;;;;;;17.05;92.11;101969.03;4982817;28;20704;-49
2023/07/09 05:25:36;;;;;;;3.42;2.85;;;;;;;17.16;91.28;101969.41;4981576;28;20267;-48
2023/07/09 05:28:02;;;;;;;4.80;2.60;;;;;;;17.26;90.17;101973.44;4981966;28;20197;-47
2023/07/09 05:30:27;;;;;;;4.85;2.42;;;;;;;17.37;89.05;101972.06;4983895;28;20264;-47
2023/07/09 05:32:55;;;;;;;3.67;2.50;;;;;;;17.43;88.88;101972.63;4982594;28;20603;-48
2023/07/09 05:35:21;;;;;;;3.75;2.80;;;;;;;17.64;88.18;101964.38;4983803;28;20200;-48
2023/07/09 05:37:47;;;;;;;5.20;3.20;;;;;;;17.71;86.97;101961.31;4984731;28;20170;-48
2023/07/09 05:40:12;;;;;;;4.07;2.80;;;;;;;17.91;86.27;101956.75;4982534;28;20200;-48
2023/07/09 05:42:38;;;;;;;3.30;2.75;;;;;;;18.02;85.19;101957.06;4981290;28;20186;-49
2023/07/09 05:45:04;;;;;;;3.55;2.42;;;;;;;18.14;84.15;101952.81;4982915;28;20189;-50
2023/07/09 05:47:30;;;;;;;4.32;2.55;;;;;;;18.16;84.00;101956.34;4986484;28;20205;-48
2023/07/09 05:49:55;;;;;;;4.97;3.00;;;;;;;18.22;83.86;101960.59;4986112;28;20181;-49
2023/07/09 05:52:24;;;;;;;3.60;2.42;;;;;;;18.33;82.96;101975.31;4983603;28;20200;-49
2023/07/09 05:54:50;;;;;;;5.82;2.63;;;;;;;18.38;81.88;101963.34;4986919;28;20209;-48
2023/07/09 05:57:16;;;;;;;3.80;2.20;;;;;;;18.42;81.06;101957.69;4982278;28;20186;-47
2023/07/09 05:59:42;;;;;;;4.55;2.40;;;;;;;18.65;80.85;101963.69;4983783;28;20322;-48
2023/07/09 06:02:16;;;;;;;3.67;2.25;;;;;;;18.63;79.77;101962.91;4994100;28;20177;-48
2023/07/09 06:04:45;;;;;;;2.75;2.50;;;;;;;18.72;78.59;101952.44;4981506;28;20205;-49
2023/07/09 06:07:13;;;;;;;2.33;2.03;;;;;;;18.94;77.78;101945.88;4981303;28;20252;-49
2023/07/09 06:09:39;;;;;;;2.88;2.47;;;;;;;18.91;76.89;101941.50;4985312;28;20645;-48
2023/07/09 06:12:05;;;;;;;2.58;2.38;;;;;;;19.02;76.20;101945.41;4983742;28;20182;-49
2023/07/09 06:14:31;;;;;;;3.38;2.30;;;;;;;19.24;75.66;101951.41;4981657;28;20585;-50
2023/07/09 06:16:57;;;;;;;3.58;2.40;;;;;;;19.45;73.54;101934.84;4982765;28;20173;-48
2023/07/09 06:19:23;;;;;;;2.85;2.20;;;;;;;19.74;73.02;101941.31;4983642;28;20320;-48
2023/07/09 06:21:49;;;;;;;4.30;2.30;;;;;;;19.91;72.28;101935.75;4982410;28;20376;-47
2023/07/09 06:24:14;;;;;;;3.13;2.40;;;;;;;20.17;71.88;101931.44;4980728;28;20213;-48
2023/07/09 06:26:39;;;;;;;3.65;2.58;;;;;;;20.14;69.12;101920.75;4982844;28;20247;-49
2023/07/09 06:29:05;;;;;;;4.70;2.50;;;;;;;20.41;68.28;101916.44;4980110;28;20177;-48
2023/07/09 06:31:31;;;;;;;2.92;2.50;;;;;;;20.64;68.31;101921.34;4979788;28;20189;-51
2023/07/09 06:33:57;;;;;;;4.45;2.20;;;;;;;21.02;67.08;101912.53;4982137;28;20272;-48
2023/07/09 06:36:22;;;;;;;3.85;2.63;;;;;;;21.29;64.75;101895.34;4978209;28;20177;-51
2023/07/09 06:38:48;;;;;;;2.20;2.00;;;;;;;21.34;62.84;101879.53;4982703;28;20216;-48
2023/07/09 06:41:14;;;;;;;3.42;2.20;;;;;;;21.34;61.30;101865.91;4980900;28;20215;-49
2023/07/09 06:43:40;;;;;;;4.70;2.38;;;;;;;21.65;60.69;101867.50;4994974;28;20194;-50
2023/07/09 06:46:08;;;;;;;6.45;2.30;;;;;;;21.64;61.38;101868.44;4983779;28;20679;-48
2023/07/09 06:48:33;;;;;;;3.28;2.28;;;;;;;21.77;59.48;101863.03;4998472;28;20177;-50
2023/07/09 06:50:59;;;;;;;6.70;2.47;;;;;;;21.86;58.45;101853.34;4983223;28;20195;-51
2023/07/09 06:53:26;;;;;;;2.70;2.50;;;;;;;22.28;58.16;101852.22;4980462;28;20477;-48
2023/07/09 06:55:55;;;;;;;3.03;2.10;;;;;;;22.33;57.28;101847.28;4985004;28;20201;-46
2023/07/09 06:58:21;;;;;;;4.32;2.70;;;;;;;22.70;57.42;101849.22;4983740;28;20177;-48
2023/07/09 07:00:49;;;;;;;3.17;2.40;;;;;;;22.99;57.28;101842.44;4982213;28;20215;-47
2023/07/09 07:03:15;;;;;;;3.63;2.22;;;;;;;22.76;56.30;101830.50;4980751;28;20181;-48
2023/07/09 07:05:45;;;;;;;2.65;2.40;;;;;;;22.97;56.26;101830.75;4978825;28;20208;-49
2023/07/09 07:08:12;;;;;;;4.22;2.40;;;;;;;22.92;56.09;101835.69;4984741;28;20455;-49
2023/07/09 07:10:38;;;;;;;3.85;2.33;;;;;;;23.18;55.97;101824.72;4980937;28;20196;-47
2023/07/09 07:13:03;;;;;;;4.22;2.40;;;;;;;23.38;55.34;101824.03;4983255;28;20182;-46
2023/07/09 07:15:28;;;;;;;3.22;2.38;;;;;;;23.67;55.51;101831.84;4983788;28;20569;-47
2023/07/09 07:17:54;;;;;;;3.33;2.00;;;;;;;23.81;54.89;101814.38;4984369;28;20173;-46
2023/07/09 07:20:19;;;;;;;3.70;2.50;;;;;;;24.12;54.06;101817.41;4980102;28;20182;-46
2023/07/09 07:22:45;;;;;;;2.13;1.92;;;;;;;24.18;53.59;101811.47;4981096;28;20303;-46
2023/07/09 07:25:12;;;;;;;4.75;2.30;;;;;;;24.42;53.49;101806.75;4985524;28;20558;-47
2023/07/09 07:27:37;;;;;;;4.18;2.17;;;;;;;24.78;53.63;101812.09;4984252;28;20213;-47
2023/07/09 07:30:04;;;;;;;3.05;2.22;;;;;;;24.66;52.29;101798.44;4982534;28;20659;-45
2023/07/09 07:32:29;;;;;;;6.78;2.28;;;;;;;24.34;52.54;101798.28;4980379;28;20205;-47
2023/07/09 07:34:55;;;;;;;2.90;2.30;;;;;;;24.78;52.48;101807.47;4980515;28;20243;-46
2023/07/09 07:37:20;;;;;;;3.30;2.35;;;;;;;25.03;52.60;101805.44;4976010;28;20174;-47
2023/07/09 07:39:47;;;;;;;2.92;2.35;;;;;;;25.03;50.35;101778.88;4979207;28;20244;-46
2023/07/09 07:42:12;;;;;;;3.78;2.10;;;;;;;25.19;51.21;101792.22;4983119;28;20165;-47
2023/07/09 07:44:38;;;;;;;2.92;2.05;;;;;;;25.04;50.51;101791.59;4981660;28;20301;-46
2023/07/09 07:47:04;;;;;;;3.25;2.20;;;;;;;25.04;50.32;101785.25;4980071;28;20193;-46
2023/07/09 07:49:29;;;;;;;4.72;2.28;;;;;;;25.25;50.13;101786.22;4980706;28;20189;-46
2023/07/09 07:51:55;;;;;;;2.40;2.20;;;;;;;25.11;50.05;101782.84;4976810;28;20178;-47
2023/07/09 07:54:21;;;;;;;2.47;2.08;;;;;;;25.52;50.79;101795.81;4981696;28;20703;-47
2023/07/09 07:56:46;;;;;;;2.15;2.03;;;;;;;25.85;50.20;101786.50;4976300;28;20201;-46
2023/07/09 07:59:12;;;;;;;3.55;2.15;;;;;;;26.15;49.44;101787.56;4980070;28;20216;-46
2023/07/09 08:01:38;;;;;;;3.10;2.50;;;;;;;25.66;49.30;101776.25;4984083;28;20187;-48
2023/07/09 08:04:03;;;;;;;5.38;2.30;;;;;;;25.96;49.47;101792.97;4982041;28;20188;-49
2023/07/09 08:06:31;;;;;;;3.00;1.85;;;;;;;26.67;48.98;101785.59;4982817;28;20289;-47
2023/07/09 08:08:57;;;;;;;2.85;2.35;;;;;;;26.83;49.11;101778.69;4977161;28;20338;-49
2023/07/09 08:11:24;;;;;;;6.07;2.28;;;;;;;26.58;47.11;101760.84;4985235;28;20276;-46
2023/07/09 08:13:49;;;;;;;5.65;2.17;;;;;;;26.60;47.31;101756.09;4980048;28;20273;-47
2023/07/09 08:16:15;;;;;;;4.95;1.88;;;;;;;26.60;47.46;101758.84;4980541;28;20280;-47
2023/07/09 08:18:40;;;;;;;5.72;2.22;;;;;;;26.69;47.05;101747.84;4976199;28;20177;-47
2023/07/09 08:21:06;;;;;;;2.30;2.00;;;;;;;26.98;46.68;101749.75;4981286;28;20633;-49
2023/07/09 08:23:32;;;;;;;3.70;2.17;;;;;;;26.61;45.56;101733.97;4983872;28;20259;-47
2023/07/09 08:26:00;;;;;;;2.50;1.77;;;;;;;27.13;45.89;101742.84;4982847;28;20196;-47
2023/07/09 08:28:26;;;;;;;3.38;2.05;;;;;;;26.73;46.05;101747.56;4979509;28;20694;-47
2023/07/09 08:30:53;;;;;;;2.28;2.03;;;;;;;27.10;45.26;101729.38;4976825;28;20212;-46
2023/07/09 08:33:18;;;;;;;4.93;2.25;;;;;;;27.19;44.77;101732.25;4977534;28;20185;-46
2023/07/09 08:35:44;;;;;;;3.55;2.00;;;;;;;26.99;45.93;101746.00;4980367;28;20267;-47
2023/07/09 08:38:10;;;;;;;3.85;2.13;;;;;;;27.30;46.03;101746.75;4979535;28;20313;-46
2023/07/09 08:40:48;;;;;;;2.50;2.30;;;;;;;27.09;45.19;101732.25;4984906;28;20189;-47
2023/07/09 08:43:41;;;;;;;2.80;2.35;;;;;;;27.47;44.94;101739.66;4973573;28;20519;-47
2023/07/09 08:46:24;;;;;;;3.70;2.17;;;;;;;27.78;44.79;101744.09;4978053;28;20196;-47
2023/07/09 08:48:52;;;;;;;2.53;2.10;;;;;;;27.87;44.08;101732.19;4980681;28;20191;-48
2023/07/09 08:51:48;;;;;;;4.47;2.40;;;;;;;27.31;44.01;101712.75;4979004;28;20173;-47
2023/07/09 08:54:35;;;;;;;2.72;2.17;;;;;;;27.64;43.88;101712.38;4974814;28;20216;-46
2023/07/09 08:57:23;;;;;;;3.30;2.05;;;;;;;27.88;43.99;101720.19;4979752;28;20285;-47
2023/07/09 08:59:54;;;;;;;2.05;1.85;;;;;;;28.59;44.03;101727.84;4978209;28;20801;-47
2023/07/09 09:02:31;;;;;;;2.28;2.00;;;;;;;28.57;42.99;101709.72;4980563;28;20648;-47
2023/07/09 09:04:57;;;;;;;2.25;2.03;;;;;;;28.38;42.98;101714.28;4978408;28;20279;-47
2023/07/09 09:07:36;;;;;;;3.25;2.10;;;;;;;28.26;42.44;101698.97;4980632;28;20205;-46
2023/07/09 09:10:03;;;;;;;4.80;2.13;;;;;;;27.71;42.70;101705.28;4977899;28;20188;-45
2023/07/09 09:12:36;;;;;;;3.97;2.10;;;;;;;27.48;43.08;101705.59;4975450;28;20231;-46
2023/07/09 09:15:14;;;;;;;2.35;2.15;;;;;;;28.01;42.05;101690.41;4980828;28;20204;-47
2023/07/09 09:17:40;;;;;;;4.10;2.05;;;;;;;28.29;41.83;101690.41;4979167;28;20189;-47
2023/07/09 09:20:22;;;;;;;2.45;1.98;;;;;;;28.07;42.32;101699.94;4981644;28;20188;-47
2023/07/09 09:23:06;;;;;;;3.60;2.15;;;;;;;28.52;42.48;101702.78;4981023;28;20647;-47
2023/07/09 09:25:33;;;;;;;2.92;2.15;;;;;;;28.35;41.78;101692.53;4982655;28;20288;-46
2023/07/09 09:28:02;;;;;;;2.50;2.30;;;;;;;28.75;40.98;101688.53;4973887;28;20213;-47
2023/07/09 09:30:30;;;;;;;3.20;2.20;;;;;;;28.56;41.16;101678.53;4978375;28;20240;-46
2023/07/09 09:33:21;;;;;;;3.47;2.03;;;;;;;28.39;40.77;101677.44;4981242;28;20188;-46
2023/07/09 09:35:47;;;;;;;2.50;2.20;;;;;;;28.87;40.58;101678.13;4978849;28;20212;-46
2023/07/09 09:38:19;;;;;;;3.60;2.00;;;;;;;28.71;39.71;101665.03;4978660;28;20193;-46
2023/07/09 09:40:45;;;;;;;5.80;1.80;;;;;;;28.76;39.91;101674.59;4979816;28;20196;-47
2023/07/09 09:43:16;;;;;;;5.43;2.33;;;;;;;28.54;39.83;101664.88;4977251;28;20247;-46
2023/07/09 09:45:44;;;;;;;2.72;2.13;;;;;;;28.77;40.07;101672.69;4976287;28;20555;-47
2023/07/09 09:48:15;;;;;;;2.88;2.10;;;;;;;28.81;39.90;101671.34;4976274;28;20213;-47
2023/07/09 09:50:41;;;;;;;4.07;2.30;;;;;;;28.72;38.55;101651.09;4979662;28;20395;-47
2023/07/09 09:53:08;;;;;;;2.20;2.00;;;;;;;28.75;38.81;101653.56;4984575;28;20204;-47
2023/07/09 09:55:34;;;;;;;3.78;2.30;;;;;;;28.89;39.20;101654.03;4979118;28;20209;-47
2023/07/09 09:58:02;;;;;;;2.83;1.98;;;;;;;29.01;39.41;101663.75;4979051;28;20183;-46
2023/07/09 10:00:33;;;;;;;7.43;2.25;;;;;;;28.82;39.46;101666.69;4979594;28;20189;-47
2023/07/09 10:03:06;;;;;;;2.88;2.20;;;;;;;29.14;39.37;101672.53;4976976;28;20280;-47
2023/07/09 10:05:38;;;;;;;2.80;2.25;;;;;;;29.13;38.14;101643.22;4982303;28;20259;-47
2023/07/09 10:08:19;;;;;;;4.35;2.22;;;;;;;28.91;38.50;101643.69;4983331;28;20675;-49
2023/07/09 10:10:46;;;;;;;2.00;1.90;;;;;;;28.31;39.55;101645.13;4981505;28;20192;-46
2023/07/09 10:13:24;;;;;;;4.78;2.00;;;;;;;28.85;38.71;101644.31;4981746;28;20212;-46
2023/07/09 10:16:07;;;;;;;4.15;2.40;;;;;;;28.79;38.32;101631.16;4979964;28;20213;-47
2023/07/09 10:18:40;;;;;;;3.58;2.10;;;;;;;28.87;38.59;101636.75;4980124;28;20181;-47
2023/07/09 10:21:13;;;;;;;5.82;2.10;;;;;;;29.08;37.99;101623.50;4980915;28;20221;-47
2023/07/09 10:24:31;;;;;;;3.25;2.40;;;;;;;29.27;37.31;101625.19;4982872;28;20191;-47
2023/07/09 10:27:08;;;;;;;5.25;2.28;;;;;;;29.00;37.76;101617.03;4938506;28;20222;-47
2023/07/09 10:30:09;;;;;;;3.20;2.33;;;;;;;29.07;37.04;101602.44;4981943;28;20184;-47
2023/07/09 10:33:04;;;;;;;3.90;2.25;;;;;;;29.61;37.97;101632.66;4979323;28;20224;-49
2023/07/09 10:35:56;;;;;;;3.22;2.50;;;;;;;29.72;36.92;101613.06;4985705;28;20204;-47
2023/07/09 10:38:26;;;;;;;3.88;2.17;;;;;;;29.78;36.53;101611.53;4979803;28;20197;-47
2023/07/09 10:40:56;;;;;;;3.47;2.22;;;;;;;29.60;36.26;101605.19;4980864;28;20200;-46
2023/07/09 10:43:50;;;;;;;3.20;2.05;;;;;;;29.82;36.36;101626.75;4977053;28;20184;-47
2023/07/09 10:46:26;;;;;;;2.88;2.17;;;;;;;29.67;37.02;101615.44;4983296;28;20552;-46
2023/07/09 10:48:54;;;;;;;2.92;2.00;;;;;;;29.34;36.88;101603.31;4980642;28;20205;-45
2023/07/09 10:51:34;;;;;;;4.10;2.13;;;;;;;29.49;36.85;101603.59;4980491;28;20191;-47
2023/07/09 10:54:05;;;;;;;3.28;2.00;;;;;;;29.84;36.42;101610.88;4980193;28;20192;-47
2023/07/09 10:56:37;;;;;;;3.70;2.25;;;;;;;29.46;36.63;101603.94;4982327;28;20189;-46
2023/07/09 10:59:16;;;;;;;4.97;2.53;;;;;;;29.90;36.72;101614.88;4981697;28;20246;-46
2023/07/09 11:01:47;;;;;;;3.55;2.17;;;;;;;29.63;36.76;101603.00;4980322;28;20672;-46
2023/07/09 11:04:46;;;;;;;4.38;2.47;;;;;;;29.88;37.53;101612.28;4978398;28;20204;-46
2023/07/09 11:07:17;;;;;;;3.40;2.25;;;;;;;29.88;37.53;101612.28;4979735;28;20291;-47
2023/07/09 11:09:45;;;;;;;3.83;2.25;;;;;;;29.99;37.42;101611.09;4998776;28;20208;-46
2023/07/09 11:12:22;;;;;;;2.70;1.98;;;;;;;30.07;37.80;101613.91;4977648;28;20204;-47
2023/07/09 11:14:57;;;;;;;5.07;2.10;;;;;;;30.06;37.48;101609.41;4980155;28;20209;-45
2023/07/09 11:17:22;;;;;;;4.20;2.50;;;;;;;29.53;37.60;101608.63;4980036;28;20181;-45
2023/07/09 11:19:55;;;;;;;3.35;2.50;;;;;;;29.99;36.97;101600.06;4994578;28;20679;-46
2023/07/09 11:22:23;;;;;;;6.75;2.35;;;;;;;29.99;37.20;101600.06;4979468;28;20273;-48
2023/07/09 11:24:51;;;;;;;3.78;2.20;;;;;;;29.93;37.21;101601.56;4980954;28;20216;-47
2023/07/09 11:27:26;;;;;;;4.90;2.80;;;;;;;30.37;37.12;101608.81;4983381;28;20200;-45
2023/07/09 11:29:58;;;;;;;3.38;2.22;;;;;;;29.76;36.75;101586.84;4979723;28;20181;-45
2023/07/09 11:32:24;;;;;;;2.40;2.20;;;;;;;29.26;37.41;101593.13;4980974;28;20209;-46